LYBE/BEG METAR and TAF weather

Enter ICAO airport designator
Station Type Date Time Source
LYBE METAR 2021/10/24 22:30 UTC NOAA

LYBE 242230Z 04001KT CAVOK 05/01 Q1031 NOSIG


Station Type Date Time Source
LYBE Decoded METAR 2021/10/24 22:30 UTC NOAA

Beograd / Surcin, Serbia and Montenegro (LYBE) 44-49N 020-17E 99M
Oct 24, 2021 - 06:30 PM EDT / 2021.10.24 2230 UTC
Wind: from the NE (040 degrees) at 1 MPH (1 KT):0
Visibility: greater than 7 mile(s):0
Temperature: 41 F (5 C)
Dew Point: 33 F (1 C)
Relative Humidity: 75%
Pressure (altimeter): 30.45 in. Hg (1031 hPa)
ob: LYBE 242230Z 04001KT CAVOK 05/01 Q1031 NOSIG
cycle: 22

Station Type Date Time Source
LYBE TAF 2021/10/24 18:21 UTC NOAA

TAF TAF LYBE 241700Z 2418/2518 05006KT CAVOK TX15/2513Z TN02/2505Z
BECMG 2507/2509 12015KT

Example: see airport list